createdAt,value
2023-05-10T00:00:02.498Z,7.75
2023-05-10T00:02:29.192Z,7.74
2023-05-10T00:04:55.872Z,7.71
2023-05-10T00:07:22.526Z,7.69
2023-05-10T00:09:49.213Z,7.67
2023-05-10T00:12:15.988Z,7.70
2023-05-10T00:14:42.622Z,7.61
2023-05-10T00:17:09.253Z,7.64
2023-05-10T00:19:35.841Z,7.65
2023-05-10T00:22:02.670Z,7.58
2023-05-10T00:24:29.399Z,7.58
2023-05-10T00:26:55.977Z,7.56
2023-05-10T00:29:22.699Z,7.57
2023-05-10T00:31:49.349Z,7.52
2023-05-10T00:34:15.949Z,7.51
2023-05-10T00:36:42.625Z,7.50
2023-05-10T00:39:09.486Z,7.50
2023-05-10T00:41:36.092Z,7.44
2023-05-10T00:44:03.150Z,7.39
2023-05-10T00:46:30.382Z,7.35
2023-05-10T00:48:57.333Z,7.33
2023-05-10T00:51:24.125Z,7.34
2023-05-10T00:53:52.430Z,7.32
2023-05-10T00:56:19.385Z,7.34
2023-05-10T00:58:46.242Z,7.28
2023-05-10T01:01:13.371Z,7.26
2023-05-10T01:03:40.863Z,7.28
2023-05-10T01:06:07.850Z,7.21
2023-05-10T01:08:34.913Z,7.18
2023-05-10T01:11:01.669Z,7.19
2023-05-10T01:13:36.122Z,7.18
2023-05-10T01:16:04.206Z,7.14
2023-05-10T01:18:34.137Z,7.11
2023-05-10T01:21:08.281Z,7.11
2023-05-10T01:23:43.987Z,7.04
2023-05-10T01:26:28.661Z,7.02
2023-05-10T01:28:58.231Z,6.97
2023-05-10T01:31:52.840Z,6.95
2023-05-10T01:34:26.713Z,6.90
2023-05-10T01:37:10.438Z,6.87
2023-05-10T01:39:47.955Z,6.82
2023-05-10T01:42:29.899Z,6.78
2023-05-10T01:45:03.473Z,6.80
2023-05-10T01:47:58.405Z,6.71
2023-05-10T01:50:30.537Z,6.71
2023-05-10T01:53:00.338Z,6.63
2023-05-10T01:55:33.210Z,6.72
2023-05-10T01:58:14.155Z,6.59
2023-05-10T02:00:43.747Z,6.64
2023-05-10T02:03:12.445Z,6.62
2023-05-10T02:05:41.124Z,6.61
2023-05-10T02:08:09.332Z,6.57
2023-05-10T02:10:36.619Z,6.58
2023-05-10T02:13:05.076Z,6.51
2023-05-10T02:15:33.087Z,6.48
2023-05-10T02:18:01.427Z,6.47
2023-05-10T02:20:28.360Z,6.34
2023-05-10T02:22:56.959Z,6.35
2023-05-10T02:25:25.597Z,6.33
2023-05-10T02:27:56.216Z,6.35
2023-05-10T02:30:24.362Z,6.35
2023-05-10T02:32:52.666Z,6.38
2023-05-10T02:35:20.290Z,6.35
2023-05-10T02:37:48.904Z,6.34
2023-05-10T02:40:18.916Z,6.28
2023-05-10T02:42:48.468Z,6.25
2023-05-10T02:45:31.412Z,6.22
2023-05-10T02:47:59.227Z,6.13
2023-05-10T02:50:29.694Z,6.15
2023-05-10T02:53:03.049Z,6.19
2023-05-10T02:55:36.460Z,6.18
2023-05-10T02:58:03.971Z,6.18
2023-05-10T03:00:30.908Z,6.09
2023-05-10T03:02:57.683Z,6.09
2023-05-10T03:05:24.500Z,6.05
2023-05-10T03:07:52.437Z,6.08
2023-05-10T03:10:19.938Z,5.99
2023-05-10T03:13:08.726Z,5.98
2023-05-10T03:15:46.067Z,5.92
2023-05-10T03:18:38.209Z,5.96
2023-05-10T03:21:09.974Z,5.92
2023-05-10T03:23:47.126Z,6.00
2023-05-10T03:26:21.571Z,5.95
2023-05-10T03:28:49.769Z,5.91
2023-05-10T03:31:16.525Z,5.85
2023-05-10T03:33:53.252Z,5.82
2023-05-10T03:36:20.476Z,5.90
2023-05-10T03:38:47.107Z,5.89
2023-05-10T03:41:13.795Z,5.84
2023-05-10T03:43:40.817Z,5.86
2023-05-10T03:46:08.639Z,5.79
2023-05-10T03:48:35.898Z,5.82
2023-05-10T03:51:03.114Z,5.81
2023-05-10T03:53:29.990Z,5.75
2023-05-10T03:55:56.680Z,5.75
2023-05-10T03:58:23.422Z,5.77
2023-05-10T04:00:50.074Z,5.71
2023-05-10T04:03:16.921Z,5.74
2023-05-10T04:05:43.614Z,5.67
2023-05-10T04:08:10.410Z,5.68
2023-05-10T04:10:37.092Z,5.72
2023-05-10T04:13:03.955Z,5.67
2023-05-10T04:15:30.647Z,5.67
2023-05-10T04:17:57.326Z,5.60
2023-05-10T04:20:24.016Z,5.59
2023-05-10T04:22:50.613Z,5.63
2023-05-10T04:25:17.384Z,5.55
2023-05-10T04:27:43.992Z,5.65
2023-05-10T04:30:10.969Z,5.67
2023-05-10T04:32:37.600Z,5.67
2023-05-10T04:35:05.739Z,5.69
2023-05-10T04:37:32.505Z,5.68
2023-05-10T04:40:00.923Z,5.71
2023-05-10T04:42:27.546Z,5.71
2023-05-10T04:44:54.185Z,5.77
2023-05-10T04:47:20.951Z,5.82
2023-05-10T04:49:47.599Z,5.93
2023-05-10T04:52:15.396Z,5.96
2023-05-10T04:54:42.000Z,6.00
2023-05-10T04:57:08.787Z,6.10
2023-05-10T04:59:37.649Z,6.22
2023-05-10T05:02:04.578Z,6.31
2023-05-10T05:04:32.065Z,6.33
2023-05-10T05:06:58.658Z,6.44
2023-05-10T05:09:25.266Z,6.55
2023-05-10T05:11:51.883Z,6.68
2023-05-10T05:14:18.484Z,6.76
2023-05-10T05:16:45.214Z,6.88
2023-05-10T05:19:11.819Z,6.96
2023-05-10T05:21:38.499Z,7.08
2023-05-10T05:24:05.666Z,7.21
2023-05-10T05:26:32.293Z,7.27
2023-05-10T05:28:58.944Z,7.31
2023-05-10T05:31:25.648Z,7.34
2023-05-10T05:33:52.650Z,7.33
2023-05-10T05:36:19.265Z,7.36
2023-05-10T05:38:46.069Z,7.40
2023-05-10T05:41:13.131Z,7.45
2023-05-10T05:43:39.821Z,7.44
2023-05-10T05:46:06.637Z,7.52
2023-05-10T05:48:33.523Z,7.64
2023-05-10T05:51:00.267Z,7.79
2023-05-10T05:53:27.185Z,7.92
2023-05-10T05:55:54.272Z,8.10
2023-05-10T05:58:21.727Z,8.27
2023-05-10T06:00:48.465Z,8.43
2023-05-10T06:03:15.321Z,8.58
2023-05-10T06:05:42.099Z,8.73
2023-05-10T06:08:08.688Z,8.86
2023-05-10T06:10:35.313Z,8.98
2023-05-10T06:13:02.101Z,9.08
2023-05-10T06:15:28.918Z,9.19
2023-05-10T06:17:55.673Z,9.31
2023-05-10T06:20:22.333Z,9.44
2023-05-10T06:22:48.953Z,9.57
2023-05-10T06:25:16.243Z,9.70
2023-05-10T06:27:43.061Z,9.87
2023-05-10T06:30:13.275Z,9.98
2023-05-10T06:32:40.711Z,9.95
2023-05-10T06:35:07.978Z,9.91
2023-05-10T06:37:35.458Z,9.87
2023-05-10T06:40:02.909Z,10.00
2023-05-10T06:42:29.554Z,10.12
2023-05-10T06:44:56.148Z,10.28
2023-05-10T06:47:23.079Z,10.45
2023-05-10T06:49:49.669Z,10.55
2023-05-10T06:52:16.293Z,10.66
2023-05-10T06:54:42.982Z,10.80
2023-05-10T06:57:23.415Z,10.94
2023-05-10T06:59:57.282Z,11.13
2023-05-10T07:02:24.170Z,11.25
2023-05-10T07:04:52.907Z,11.36
2023-05-10T07:07:20.208Z,11.40
2023-05-10T07:09:47.145Z,11.52
2023-05-10T07:12:15.299Z,11.53
2023-05-10T07:14:43.047Z,11.52
2023-05-10T07:17:10.423Z,11.63
2023-05-10T07:19:37.675Z,11.63
2023-05-10T07:22:04.539Z,11.52
2023-05-10T07:24:32.328Z,11.35
2023-05-10T07:26:59.089Z,11.31
2023-05-10T07:29:26.545Z,11.52
2023-05-10T07:31:53.422Z,11.74
2023-05-10T07:34:20.224Z,11.95
2023-05-10T07:36:47.519Z,12.14
2023-05-10T07:39:18.601Z,12.22
2023-05-10T07:41:53.067Z,12.29
2023-05-10T07:44:21.325Z,12.29
2023-05-10T07:46:48.753Z,12.20
2023-05-10T07:49:15.518Z,12.18
2023-05-10T07:51:43.357Z,12.27
2023-05-10T07:54:10.065Z,12.37
2023-05-10T07:56:37.168Z,12.61
2023-05-10T07:59:06.086Z,12.80
2023-05-10T08:01:34.121Z,12.99
2023-05-10T08:04:01.301Z,13.28
2023-05-10T08:06:29.242Z,13.41
2023-05-10T08:08:56.582Z,13.24
2023-05-10T08:11:24.970Z,13.09
2023-05-10T08:13:52.437Z,13.08
2023-05-10T08:16:19.271Z,13.06
2023-05-10T08:18:48.039Z,13.14
2023-05-10T08:21:15.675Z,13.04
2023-05-10T08:23:42.572Z,12.92
2023-05-10T08:26:09.247Z,12.91
2023-05-10T08:28:35.910Z,13.14
2023-05-10T08:31:02.724Z,13.26
2023-05-10T08:33:29.423Z,13.40
2023-05-10T08:35:56.130Z,13.41
2023-05-10T08:38:22.827Z,13.47
2023-05-10T08:40:51.963Z,13.51
2023-05-10T08:43:19.381Z,13.51
2023-05-10T08:45:47.951Z,13.37
2023-05-10T08:48:16.158Z,13.31
2023-05-10T08:50:44.003Z,13.38
2023-05-10T08:53:17.052Z,13.38
2023-05-10T08:55:45.146Z,13.37
2023-05-10T08:58:12.034Z,13.52
2023-05-10T09:00:38.991Z,13.41
2023-05-10T09:03:07.595Z,13.57
2023-05-10T09:05:34.486Z,13.68
2023-05-10T09:08:04.181Z,13.67
2023-05-10T09:10:32.229Z,13.68
2023-05-10T09:12:59.745Z,13.75
2023-05-10T09:15:27.156Z,13.75
2023-05-10T09:17:55.658Z,13.85
2023-05-10T09:20:22.547Z,13.98
2023-05-10T09:22:49.446Z,14.09
2023-05-10T09:25:17.814Z,14.16
2023-05-10T09:27:48.782Z,14.35
2023-05-10T09:30:29.645Z,14.43
2023-05-10T09:32:58.085Z,14.49
2023-05-10T09:35:30.147Z,14.67
2023-05-10T09:38:02.303Z,14.68
2023-05-10T09:40:31.172Z,14.68
2023-05-10T09:43:07.891Z,14.61
2023-05-10T09:45:38.221Z,14.43
2023-05-10T09:48:07.163Z,14.54
2023-05-10T09:50:35.214Z,14.35
2023-05-10T09:53:04.576Z,14.45
2023-05-10T09:55:37.292Z,14.69
2023-05-10T09:58:05.377Z,14.94
2023-05-10T10:00:40.600Z,15.08
2023-05-10T10:03:13.340Z,15.19
2023-05-10T10:05:41.795Z,15.12
2023-05-10T10:08:08.702Z,15.15
2023-05-10T10:10:35.642Z,15.14
2023-05-10T10:13:03.698Z,15.23
2023-05-10T10:15:30.615Z,15.17
2023-05-10T10:17:57.281Z,15.04
2023-05-10T10:20:25.088Z,14.82
2023-05-10T10:22:52.439Z,14.55
2023-05-10T10:25:20.582Z,14.47
2023-05-10T10:28:10.703Z,14.13
2023-05-10T10:30:47.466Z,13.91
2023-05-10T10:33:34.998Z,13.75
2023-05-10T10:36:03.833Z,13.49
2023-05-10T10:39:01.208Z,13.48
2023-05-10T10:41:42.025Z,13.45
2023-05-10T10:44:27.139Z,13.52
2023-05-10T10:47:10.326Z,13.68
2023-05-10T10:49:49.392Z,14.02
2023-05-10T10:52:17.251Z,14.13
2023-05-10T10:54:51.602Z,14.23
2023-05-10T10:57:19.943Z,14.15
2023-05-10T10:59:47.357Z,14.01
2023-05-10T11:02:42.524Z,13.70
2023-05-10T11:05:42.760Z,13.61
2023-05-10T11:08:19.804Z,13.64
2023-05-10T11:11:01.473Z,13.65
2023-05-10T11:13:33.814Z,13.68
2023-05-10T11:16:17.783Z,13.76
2023-05-10T11:19:05.308Z,13.91
2023-05-10T11:21:33.699Z,14.11
2023-05-10T11:24:02.045Z,14.13
2023-05-10T11:26:34.853Z,14.05
2023-05-10T11:29:03.080Z,14.14
2023-05-10T11:31:30.394Z,14.26
2023-05-10T11:34:01.012Z,14.25
2023-05-10T11:36:30.387Z,14.31
2023-05-10T11:38:57.870Z,14.37
2023-05-10T11:41:26.222Z,14.42
2023-05-10T11:43:55.224Z,14.70
2023-05-10T11:46:24.346Z,15.03
2023-05-10T11:48:52.860Z,15.36
2023-05-10T11:51:24.653Z,15.72
2023-05-10T11:53:54.023Z,15.73
2023-05-10T11:56:22.761Z,15.60
2023-05-10T11:58:57.595Z,15.44
2023-05-10T12:01:29.684Z,15.17
2023-05-10T12:04:02.859Z,15.06
2023-05-10T12:06:36.938Z,15.09
2023-05-10T12:09:10.685Z,15.00
2023-05-10T12:11:40.553Z,14.97
2023-05-10T12:14:09.782Z,14.94
2023-05-10T12:16:36.991Z,14.93
2023-05-10T12:19:03.938Z,15.08
2023-05-10T12:21:34.521Z,15.02
2023-05-10T12:24:04.256Z,14.91
2023-05-10T12:26:31.442Z,14.90
2023-05-10T12:29:18.116Z,15.13
2023-05-10T12:31:59.594Z,15.19
2023-05-10T12:34:37.281Z,15.35
2023-05-10T12:37:04.776Z,15.67
2023-05-10T12:39:45.738Z,16.06
2023-05-10T12:42:12.851Z,16.18
2023-05-10T12:44:40.225Z,16.21
2023-05-10T12:47:07.169Z,16.17
2023-05-10T12:49:34.981Z,16.37
2023-05-10T12:52:01.746Z,16.33
2023-05-10T12:54:28.931Z,16.43
2023-05-10T12:56:55.842Z,16.39
2023-05-10T12:59:22.508Z,16.44
2023-05-10T13:01:49.194Z,16.56
2023-05-10T13:04:15.865Z,16.89
2023-05-10T13:06:42.490Z,17.09
2023-05-10T13:09:09.231Z,17.27
2023-05-10T13:11:36.261Z,17.11
2023-05-10T13:14:04.254Z,17.04
2023-05-10T13:16:31.702Z,17.09
2023-05-10T13:18:58.522Z,17.07
2023-05-10T13:21:26.120Z,17.22
2023-05-10T13:23:52.773Z,17.20
2023-05-10T13:26:19.901Z,17.34
2023-05-10T13:28:47.180Z,17.11
2023-05-10T13:31:13.822Z,16.83
2023-05-10T13:33:40.679Z,16.55
2023-05-10T13:36:07.774Z,16.54
2023-05-10T13:38:34.446Z,16.17
2023-05-10T13:41:01.078Z,16.37
2023-05-10T13:43:27.987Z,16.61
2023-05-10T13:45:54.759Z,16.52
2023-05-10T13:48:21.478Z,16.47
2023-05-10T13:50:48.237Z,16.28
2023-05-10T13:53:15.506Z,16.17
2023-05-10T13:55:42.465Z,16.14
2023-05-10T13:58:09.094Z,16.03
2023-05-10T14:00:35.716Z,16.06
2023-05-10T14:03:02.554Z,16.12
2023-05-10T14:05:29.656Z,16.07
2023-05-10T14:07:57.822Z,15.98
2023-05-10T14:10:25.766Z,16.03
2023-05-10T14:12:52.626Z,16.09
2023-05-10T14:15:19.408Z,16.18
2023-05-10T14:17:49.455Z,16.04
2023-05-10T14:20:16.191Z,15.95
2023-05-10T14:22:42.786Z,15.92
2023-05-10T14:25:09.860Z,15.91
2023-05-10T14:27:36.842Z,15.81
2023-05-10T14:30:03.877Z,15.79
2023-05-10T14:32:30.582Z,15.68
2023-05-10T14:34:57.245Z,15.71
2023-05-10T14:37:24.080Z,15.70
2023-05-10T14:39:50.676Z,15.69
2023-05-10T14:42:17.269Z,15.88
2023-05-10T14:44:43.889Z,15.97
2023-05-10T14:47:12.075Z,16.10
2023-05-10T14:49:40.371Z,16.18
2023-05-10T14:52:07.449Z,16.20
2023-05-10T14:54:36.955Z,16.27
2023-05-10T14:57:03.645Z,16.35
2023-05-10T14:59:30.394Z,16.36
2023-05-10T15:01:57.504Z,16.21
2023-05-10T15:04:25.941Z,16.05
2023-05-10T15:07:00.116Z,15.83
2023-05-10T15:09:28.980Z,15.42
2023-05-10T15:11:57.305Z,15.07
2023-05-10T15:14:24.321Z,15.04
2023-05-10T15:16:51.116Z,15.27
2023-05-10T15:19:18.876Z,15.35
2023-05-10T15:21:46.952Z,15.42
2023-05-10T15:24:14.928Z,15.47
2023-05-10T15:26:41.557Z,15.41
2023-05-10T15:29:08.245Z,15.35
2023-05-10T15:31:38.849Z,15.27
2023-05-10T15:34:05.684Z,15.26
2023-05-10T15:36:33.142Z,15.05
2023-05-10T15:38:59.790Z,14.97
2023-05-10T15:41:26.581Z,14.97
2023-05-10T15:43:53.236Z,14.84
2023-05-10T15:46:20.078Z,14.77
2023-05-10T15:48:46.711Z,14.76
2023-05-10T15:51:13.432Z,14.92
2023-05-10T15:53:49.475Z,15.19
2023-05-10T15:56:23.489Z,15.35
2023-05-10T15:58:50.240Z,15.26
2023-05-10T16:01:17.118Z,15.30
2023-05-10T16:03:43.977Z,15.41
2023-05-10T16:06:10.606Z,15.40
2023-05-10T16:08:37.229Z,15.53
2023-05-10T16:11:04.004Z,15.65
2023-05-10T16:13:30.598Z,15.85
2023-05-10T16:16:00.459Z,15.80
2023-05-10T16:18:27.495Z,15.66
2023-05-10T16:20:54.395Z,15.63
2023-05-10T16:23:21.301Z,15.47
2023-05-10T16:25:48.281Z,15.55
2023-05-10T16:28:15.017Z,15.57
2023-05-10T16:30:41.797Z,15.51
2023-05-10T16:33:08.681Z,15.39
2023-05-10T16:35:35.489Z,15.33
2023-05-10T16:38:02.241Z,15.33
2023-05-10T16:40:28.908Z,15.34
2023-05-10T16:42:55.553Z,15.09
2023-05-10T16:45:22.373Z,15.18
2023-05-10T16:47:49.053Z,15.13
2023-05-10T16:50:15.762Z,15.00
2023-05-10T16:52:42.439Z,14.92
2023-05-10T16:55:09.469Z,14.88
2023-05-10T16:57:36.268Z,14.86
2023-05-10T17:00:04.454Z,14.96
2023-05-10T17:02:31.270Z,14.96
2023-05-10T17:04:57.963Z,15.11
2023-05-10T17:07:26.196Z,15.14
2023-05-10T17:09:53.113Z,15.13
2023-05-10T17:12:19.761Z,15.05
2023-05-10T17:14:46.420Z,15.12
2023-05-10T17:17:13.275Z,15.03
2023-05-10T17:19:39.998Z,14.99
2023-05-10T17:22:06.796Z,15.12
2023-05-10T17:24:33.966Z,15.18
2023-05-10T17:27:00.865Z,15.40
2023-05-10T17:29:28.512Z,15.34
2023-05-10T17:31:55.285Z,15.29
2023-05-10T17:34:22.015Z,15.25
2023-05-10T17:36:48.765Z,15.20
2023-05-10T17:39:15.616Z,15.14
2023-05-10T17:41:42.214Z,15.02
2023-05-10T17:44:08.960Z,15.03
2023-05-10T17:46:35.657Z,14.96
2023-05-10T17:49:02.425Z,14.92
2023-05-10T17:51:29.114Z,14.84
2023-05-10T17:53:55.876Z,14.85
2023-05-10T17:56:22.636Z,14.60
2023-05-10T17:58:50.529Z,14.65
2023-05-10T18:01:17.277Z,14.69
2023-05-10T18:03:43.970Z,14.81
2023-05-10T18:06:10.794Z,14.92
2023-05-10T18:08:37.610Z,14.89
2023-05-10T18:11:04.388Z,14.85
2023-05-10T18:13:31.098Z,14.83
2023-05-10T18:15:57.795Z,14.80
2023-05-10T18:18:24.496Z,14.67
2023-05-10T18:20:57.292Z,14.75
2023-05-10T18:23:24.707Z,14.52
2023-05-10T18:25:51.820Z,14.51
2023-05-10T18:28:18.901Z,14.45
2023-05-10T18:30:45.702Z,14.36
2023-05-10T18:33:12.780Z,14.30
2023-05-10T18:35:40.331Z,14.27
2023-05-10T18:38:09.816Z,14.12
2023-05-10T18:40:37.338Z,14.11
2023-05-10T18:43:04.219Z,13.99
2023-05-10T18:45:31.090Z,14.00
2023-05-10T18:47:58.356Z,13.83
2023-05-10T18:50:24.985Z,13.83
2023-05-10T18:52:51.703Z,13.77
2023-05-10T18:55:18.694Z,13.79
2023-05-10T18:57:45.927Z,13.80
2023-05-10T19:00:13.246Z,13.70
2023-05-10T19:02:40.677Z,13.64
2023-05-10T19:05:08.254Z,13.58
2023-05-10T19:07:34.979Z,13.56
2023-05-10T19:10:01.616Z,13.51
2023-05-10T19:12:28.551Z,13.41
2023-05-10T19:14:55.118Z,13.39
2023-05-10T19:17:23.762Z,13.38
2023-05-10T19:19:51.532Z,13.32
2023-05-10T19:22:28.340Z,13.32
2023-05-10T19:25:03.698Z,13.27
2023-05-10T19:27:30.776Z,13.27
2023-05-10T19:29:57.661Z,13.28
2023-05-10T19:32:24.587Z,13.28
2023-05-10T19:34:52.711Z,13.25
2023-05-10T19:37:19.423Z,13.20
2023-05-10T19:39:46.159Z,13.13
2023-05-10T19:42:13.075Z,13.09
2023-05-10T19:44:40.087Z,12.97
2023-05-10T19:47:08.680Z,12.87
2023-05-10T19:49:38.463Z,12.81
2023-05-10T19:52:07.834Z,12.76
2023-05-10T19:54:34.429Z,12.66
2023-05-10T19:57:01.211Z,12.64
2023-05-10T19:59:27.854Z,12.63
2023-05-10T20:01:54.508Z,12.57
2023-05-10T20:04:22.178Z,12.53
2023-05-10T20:06:49.004Z,12.54
2023-05-10T20:09:16.150Z,12.49
2023-05-10T20:11:42.783Z,12.48
2023-05-10T20:14:09.474Z,12.42
2023-05-10T20:16:36.497Z,12.42
2023-05-10T20:19:03.167Z,12.43
2023-05-10T20:21:29.787Z,12.46
2023-05-10T20:23:56.492Z,12.42
2023-05-10T20:26:23.920Z,12.39
2023-05-10T20:28:51.243Z,12.42
2023-05-10T20:31:17.994Z,12.40
2023-05-10T20:33:44.784Z,12.36
2023-05-10T20:36:11.428Z,12.37
2023-05-10T20:38:38.106Z,12.32
2023-05-10T20:41:04.696Z,12.27
2023-05-10T20:43:31.524Z,12.26
2023-05-10T20:46:05.151Z,12.29
2023-05-10T20:48:35.330Z,12.31
2023-05-10T20:51:02.505Z,12.30
2023-05-10T20:53:29.470Z,12.29
2023-05-10T20:55:56.171Z,12.29
2023-05-10T20:58:22.844Z,12.27
2023-05-10T21:00:49.482Z,12.24
2023-05-10T21:03:16.265Z,12.16
2023-05-10T21:05:42.909Z,12.13
2023-05-10T21:08:09.489Z,12.07
2023-05-10T21:10:36.098Z,12.08
2023-05-10T21:13:02.773Z,12.02
2023-05-10T21:15:29.389Z,11.99
2023-05-10T21:17:56.083Z,11.97
2023-05-10T21:20:23.510Z,11.90
2023-05-10T21:22:50.172Z,11.87
2023-05-10T21:25:17.262Z,11.79
2023-05-10T21:27:43.877Z,11.75
2023-05-10T21:30:10.796Z,11.63
2023-05-10T21:32:37.457Z,11.59
2023-05-10T21:35:04.456Z,11.54
2023-05-10T21:37:31.105Z,11.50
2023-05-10T21:39:57.754Z,11.45
2023-05-10T21:42:24.478Z,11.35
2023-05-10T21:44:51.115Z,11.28
2023-05-10T21:47:17.976Z,11.18
2023-05-10T21:49:44.799Z,11.15
2023-05-10T21:52:11.778Z,11.10
2023-05-10T21:54:39.008Z,10.94
2023-05-10T21:57:05.678Z,10.89
2023-05-10T21:59:32.285Z,10.79
2023-05-10T22:01:58.994Z,10.68
2023-05-10T22:04:25.629Z,10.57
2023-05-10T22:06:52.260Z,10.45
2023-05-10T22:09:19.018Z,10.41
2023-05-10T22:11:45.796Z,10.35
2023-05-10T22:14:12.439Z,10.27
2023-05-10T22:16:39.152Z,10.27
2023-05-10T22:19:05.979Z,10.21
2023-05-10T22:21:32.694Z,10.21
2023-05-10T22:23:59.316Z,10.20
2023-05-10T22:26:26.199Z,10.16
2023-05-10T22:28:52.838Z,10.05
2023-05-10T22:31:19.542Z,9.93
2023-05-10T22:33:46.272Z,9.82
2023-05-10T22:36:12.938Z,9.79
2023-05-10T22:38:39.562Z,9.68
2023-05-10T22:41:06.679Z,9.61
2023-05-10T22:43:33.470Z,9.55
2023-05-10T22:46:00.143Z,9.50
2023-05-10T22:48:28.608Z,9.43
2023-05-10T22:50:55.260Z,9.34
2023-05-10T22:53:21.863Z,9.20
2023-05-10T22:55:48.576Z,9.17
2023-05-10T22:58:15.253Z,9.08
2023-05-10T23:00:41.873Z,9.04
2023-05-10T23:03:08.569Z,9.06
2023-05-10T23:05:35.255Z,9.02
2023-05-10T23:08:02.036Z,9.02
2023-05-10T23:10:28.695Z,8.92
2023-05-10T23:12:56.147Z,8.91
2023-05-10T23:15:22.858Z,8.85
2023-05-10T23:17:49.596Z,8.82
2023-05-10T23:20:16.722Z,8.88
2023-05-10T23:22:43.450Z,8.91
2023-05-10T23:25:10.526Z,8.88
2023-05-10T23:27:37.163Z,8.89
2023-05-10T23:30:04.471Z,8.98
2023-05-10T23:32:31.160Z,8.93
2023-05-10T23:34:57.852Z,8.99
2023-05-10T23:37:24.513Z,8.99
2023-05-10T23:39:52.162Z,9.04
2023-05-10T23:42:18.853Z,9.02
2023-05-10T23:44:45.491Z,9.00
2023-05-10T23:47:12.177Z,9.04
2023-05-10T23:49:38.826Z,9.02
2023-05-10T23:52:05.477Z,9.04
2023-05-10T23:54:32.075Z,9.04
2023-05-10T23:56:58.685Z,9.06
2023-05-10T23:59:25.660Z,9.03
